Time;durP1;ratioP1;P1;durP2;ratioP2;P2;SDS_P1;SDS_P2;PMS_P1;PMS_P2;Temp;Humidity;BMP_temperature;BMP_pressure;BME280_temperature;BME280_humidity;BME280_pressure;Samples;Min_cycle;Max_cycle;Signal;HPM_P1;HPM_P2
2023/02/10 00:00:15;;;;;;;25.95;16.05;;;;;;;-7.54;100.00;94585.06;2571065;23;20904;-82
2023/02/10 00:01:27;;;;;;;24.30;15.80;;;;;;;-7.57;100.00;94585.59;2569833;23;20411;-81
2023/02/10 00:02:29;;;;;;;26.95;15.13;;;;;;;-7.51;100.00;94575.94;2549783;23;20424;-81
2023/02/10 00:03:31;;;;;;;26.15;15.30;;;;;;;-7.52;100.00;94584.78;2558123;23;20899;-83
2023/02/10 00:04:33;;;;;;;24.20;15.52;;;;;;;-7.51;100.00;94583.75;2569839;23;20420;-83
2023/02/10 00:05:34;;;;;;;22.98;14.77;;;;;;;-7.65;100.00;94589.50;2570251;23;20384;-82
2023/02/10 00:06:41;;;;;;;22.85;14.50;;;;;;;-7.62;100.00;94588.97;2569941;23;21287;-81
2023/02/10 00:07:42;;;;;;;22.52;14.25;;;;;;;-7.62;100.00;94593.41;2571487;23;20008;-83
2023/02/10 00:08:47;;;;;;;24.88;15.15;;;;;;;-7.61;100.00;94593.13;2569647;23;20399;-83
2023/02/10 00:09:48;;;;;;;27.98;16.13;;;;;;;-7.61;100.00;94595.72;2558115;23;20005;-81
2023/02/10 00:10:49;;;;;;;23.98;14.95;;;;;;;-7.61;100.00;94605.31;2557708;23;20444;-82
2023/02/10 00:11:56;;;;;;;26.10;15.35;;;;;;;-7.61;100.00;94595.72;2569847;23;20407;-83
2023/02/10 00:12:57;;;;;;;26.73;14.95;;;;;;;-7.75;100.00;94601.75;2569956;23;20514;-82
2023/02/10 00:13:59;;;;;;;24.10;15.20;;;;;;;-7.70;100.00;94597.31;2569817;23;20404;-82
2023/02/10 00:15:05;;;;;;;24.23;14.80;;;;;;;-7.65;100.00;94599.09;2569770;23;20750;-82
2023/02/10 00:16:09;;;;;;;27.00;15.43;;;;;;;-7.59;100.00;94603.25;2570709;23;20483;-83
2023/02/10 00:17:17;;;;;;;24.88;14.60;;;;;;;-7.57;100.00;94598.56;2570128;23;20412;-83
2023/02/10 00:18:19;;;;;;;23.38;15.15;;;;;;;-7.73;100.00;94599.66;2571427;23;20396;-84
2023/02/10 00:19:22;;;;;;;25.33;14.05;;;;;;;-7.92;100.00;94602.03;2557706;23;20739;-81
2023/02/10 00:20:23;;;;;;;24.48;14.63;;;;;;;-7.88;100.00;94598.66;2546255;23;20400;-81
2023/02/10 00:21:24;;;;;;;26.42;14.93;;;;;;;-7.81;100.00;94603.59;2557355;23;20412;-82
2023/02/10 00:22:25;;;;;;;25.73;15.35;;;;;;;-7.79;100.00;94601.50;2533161;23;20006;-80
2023/02/10 00:23:26;;;;;;;24.52;15.75;;;;;;;-7.78;100.00;94597.84;2544883;23;20014;-82
2023/02/10 00:24:28;;;;;;;22.20;14.50;;;;;;;-7.75;100.00;94596.56;2570031;23;20008;-82
2023/02/10 00:25:29;;;;;;;23.98;14.90;;;;;;;-7.81;100.00;94603.59;2582415;23;20466;-81
2023/02/10 00:26:30;;;;;;;23.63;15.00;;;;;;;-7.80;100.00;94602.53;2569478;23;20433;-81
2023/02/10 00:27:39;;;;;;;27.10;15.30;;;;;;;-7.78;100.00;94600.44;2569478;23;20332;-82
2023/02/10 00:28:40;;;;;;;23.90;14.85;;;;;;;-7.81;100.00;94598.41;2568100;23;20058;-82
2023/02/10 00:29:41;;;;;;;26.55;15.10;;;;;;;-7.87;100.00;94597.59;2558109;23;20475;-82
2023/02/10 00:30:42;;;;;;;24.15;14.13;;;;;;;-7.84;100.00;94592.94;2569678;23;20422;-81
2023/02/10 00:31:44;;;;;;;27.15;15.38;;;;;;;-7.80;100.00;94597.34;2557117;23;20412;-82
2023/02/10 00:32:45;;;;;;;23.48;14.80;;;;;;;-7.78;100.00;94604.84;2545390;23;20001;-82
2023/02/10 00:33:45;;;;;;;25.65;15.35;;;;;;;-7.79;100.00;94596.31;2569855;23;20466;-82
2023/02/10 00:34:47;;;;;;;25.73;14.68;;;;;;;-7.84;100.00;94591.13;2582943;23;20146;-82
2023/02/10 00:35:48;;;;;;;26.75;14.27;;;;;;;-7.92;100.00;94591.66;2570480;23;20079;-81
2023/02/10 00:36:50;;;;;;;23.88;15.25;;;;;;;-7.92;100.00;94597.63;2557951;23;21070;-83
2023/02/10 00:37:51;;;;;;;25.33;15.40;;;;;;;-7.95;100.00;94605.16;2557617;23;20012;-83
2023/02/10 00:38:53;;;;;;;22.85;15.05;;;;;;;-7.94;100.00;94591.94;2557562;23;20420;-82
2023/02/10 00:39:55;;;;;;;23.13;15.02;;;;;;;-7.94;100.00;94593.75;2545557;23;20009;-84
2023/02/10 00:41:03;;;;;;;24.58;14.20;;;;;;;-7.87;100.00;94595.00;2545629;23;20480;-83
2023/02/10 00:42:04;;;;;;;22.38;13.88;;;;;;;-7.88;100.00;94593.47;2571569;23;20886;-82
2023/02/10 00:43:05;;;;;;;26.35;14.13;;;;;;;-7.84;100.00;94588.53;2570257;23;20487;-83
2023/02/10 00:44:07;;;;;;;26.75;15.40;;;;;;;-7.81;100.00;94592.41;2557327;23;20415;-81
2023/02/10 00:45:08;;;;;;;22.42;14.15;;;;;;;-7.86;100.00;94593.19;2557580;23;20297;-80
2023/02/10 00:46:10;;;;;;;25.05;15.00;;;;;;;-7.88;100.00;94590.88;2557361;23;20420;-81
2023/02/10 00:47:11;;;;;;;23.63;14.63;;;;;;;-7.87;100.00;94592.41;2545549;23;20960;-82
2023/02/10 00:48:22;;;;;;;23.55;13.65;;;;;;;-7.91;100.00;94586.19;2545230;23;20427;-81
2023/02/10 00:49:23;;;;;;;26.98;15.63;;;;;;;-7.90;100.00;94590.38;2559539;23;20005;-82
2023/02/10 00:50:24;;;;;;;23.80;13.98;;;;;;;-8.13;100.00;94596.88;2570310;23;20434;-81
2023/02/10 00:51:26;;;;;;;22.33;14.23;;;;;;;-8.06;100.00;94593.25;2557365;23;20420;-82
2023/02/10 00:52:27;;;;;;;21.60;14.00;;;;;;;-8.07;100.00;94596.91;2557819;23;20001;-82
2023/02/10 00:53:28;;;;;;;25.17;15.32;;;;;;;-8.15;100.00;94591.19;2557272;23;20783;-83
2023/02/10 00:54:29;;;;;;;24.58;14.77;;;;;;;-8.07;100.00;94597.66;2545176;23;20405;-81
2023/02/10 00:55:30;;;;;;;25.40;15.02;;;;;;;-8.09;100.00;94594.53;2569956;23;20401;-81
2023/02/10 00:56:31;;;;;;;24.00;13.95;;;;;;;-8.06;100.00;94594.03;2569669;23;20435;-81
2023/02/10 00:57:32;;;;;;;24.55;14.60;;;;;;;-8.13;100.00;94593.50;2557031;23;20048;-82
2023/02/10 00:58:33;;;;;;;24.13;14.73;;;;;;;-8.14;100.00;94597.16;2557611;23;20001;-81
2023/02/10 00:59:34;;;;;;;24.67;15.05;;;;;;;-8.07;100.00;94594.31;2570259;23;20015;-83
2023/02/10 01:00:35;;;;;;;25.70;15.45;;;;;;;-8.02;100.00;94596.88;2583209;23;20395;-81
2023/02/10 01:01:36;;;;;;;27.60;15.95;;;;;;;-8.03;100.00;94603.88;2592686;23;20015;-81
2023/02/10 01:02:37;;;;;;;23.95;15.02;;;;;;;-8.08;100.00;94598.69;2580161;23;19988;-82
2023/02/10 01:03:39;;;;;;;22.85;15.25;;;;;;;-8.11;100.00;94604.41;2559049;23;20413;-81
2023/02/10 01:04:40;;;;;;;24.90;15.18;;;;;;;-8.17;100.00;94615.81;2560343;23;20324;-82
2023/02/10 01:05:42;;;;;;;23.20;14.43;;;;;;;-8.16;100.00;94604.44;2560093;23;20408;-82
2023/02/10 01:06:43;;;;;;;23.35;14.63;;;;;;;-8.18;100.00;94606.50;2572284;23;20403;-82
2023/02/10 01:07:44;;;;;;;23.83;15.10;;;;;;;-8.14;100.00;94608.31;2584380;22;20984;-81
2023/02/10 01:08:45;;;;;;;23.73;14.95;;;;;;;-8.11;100.00;94602.59;2571259;23;20072;-82
2023/02/10 01:09:46;;;;;;;24.17;14.55;;;;;;;-8.07;100.00;94597.66;2559115;23;20404;-81
2023/02/10 01:11:09;;;;;;;26.92;14.40;;;;;;;-8.07;100.00;94599.50;2571409;23;20001;-81
2023/02/10 01:12:10;;;;;;;24.98;14.20;;;;;;;-8.10;100.00;94608.56;2563032;23;20059;-81
2023/02/10 01:13:13;;;;;;;23.33;14.15;;;;;;;-8.05;100.00;94603.34;2545669;23;20405;-81
2023/02/10 01:14:15;;;;;;;24.20;14.05;;;;;;;-8.06;100.00;94609.59;2558949;23;20428;-83
2023/02/10 01:15:16;;;;;;;22.15;13.88;;;;;;;-8.08;100.00;94603.88;2558287;23;20446;-81
2023/02/10 01:16:17;;;;;;;23.63;14.27;;;;;;;-8.04;100.00;94606.72;2545597;23;20417;-81
2023/02/10 01:17:18;;;;;;;22.50;14.00;;;;;;;-8.03;100.00;94613.47;2557646;23;20440;-83
2023/02/10 01:18:19;;;;;;;24.17;14.85;;;;;;;-8.04;100.00;94612.69;2557747;23;20473;-82
2023/02/10 01:19:20;;;;;;;24.30;14.38;;;;;;;-8.14;100.00;94616.09;2570112;22;20012;-82
2023/02/10 01:20:21;;;;;;;25.05;14.82;;;;;;;-8.28;100.00;94622.06;2582289;23;20011;-82
2023/02/10 01:21:22;;;;;;;24.13;14.40;;;;;;;-8.32;100.00;94621.03;2582720;22;20505;-81
2023/02/10 01:22:23;;;;;;;22.38;14.48;;;;;;;-8.22;100.00;94624.38;2569797;23;20415;-83
2023/02/10 01:23:24;;;;;;;26.67;15.45;;;;;;;-8.20;100.00;94622.31;2545266;23;20001;-82
2023/02/10 01:24:25;;;;;;;25.65;14.52;;;;;;;-8.26;100.00;94625.94;2569776;22;20004;-82
2023/02/10 01:25:26;;;;;;;23.05;14.38;;;;;;;-8.19;100.00;94626.47;2570819;23;20092;-82
2023/02/10 01:26:29;;;;;;;23.30;14.43;;;;;;;-8.17;100.00;94632.16;2571213;23;20016;-82
2023/02/10 01:27:30;;;;;;;22.80;14.45;;;;;;;-8.23;100.00;94630.63;2583214;23;20437;-81
2023/02/10 01:28:31;;;;;;;23.92;14.73;;;;;;;-8.29;100.00;94633.47;2557960;23;20455;-81
2023/02/10 01:29:32;;;;;;;24.40;14.70;;;;;;;-8.27;100.00;94634.75;2574420;23;20005;-81
2023/02/10 01:30:35;;;;;;;25.30;14.23;;;;;;;-8.23;100.00;94633.22;2575576;23;20404;-80
2023/02/10 01:31:36;;;;;;;22.08;14.48;;;;;;;-8.22;100.00;94631.38;2551223;23;20349;-82
2023/02/10 01:32:44;;;;;;;27.65;15.05;;;;;;;-8.31;100.00;94622.56;2547183;23;20409;-82
2023/02/10 01:33:46;;;;;;;27.23;14.60;;;;;;;-8.41;100.00;94626.75;2558816;23;20430;-83
2023/02/10 01:34:47;;;;;;;25.52;14.65;;;;;;;-8.34;100.00;94617.91;2570404;22;20483;-82
2023/02/10 01:35:48;;;;;;;26.77;14.50;;;;;;;-8.27;100.00;94623.63;2582248;23;20415;-82
2023/02/10 01:36:50;;;;;;;23.88;14.30;;;;;;;-8.25;100.00;94627.53;2557660;23;20032;-82
2023/02/10 01:37:54;;;;;;;24.90;14.90;;;;;;;-8.33;100.00;94622.06;2557694;23;20000;-82
2023/02/10 01:38:55;;;;;;;23.25;14.75;;;;;;;-8.27;100.00;94621.78;2558083;23;20499;-82
2023/02/10 01:39:56;;;;;;;23.25;14.20;;;;;;;-8.30;100.00;94619.72;2557408;23;20404;-83
2023/02/10 01:40:57;;;;;;;23.52;15.48;;;;;;;-8.27;100.00;94623.63;2569900;23;20723;-81
2023/02/10 01:41:58;;;;;;;24.67;14.25;;;;;;;-8.29;100.00;94630.91;2557415;23;20011;-83
2023/02/10 01:43:00;;;;;;;25.42;14.73;;;;;;;-8.38;100.00;94633.25;2558259;23;20459;-82
2023/02/10 01:44:05;;;;;;;22.27;14.18;;;;;;;-8.54;100.00;94629.88;2558236;23;20409;-82
2023/02/10 01:45:30;;;;;;;23.67;14.35;;;;;;;-8.60;100.00;94630.09;2571463;23;20447;-83
2023/02/10 01:46:33;;;;;;;20.05;12.95;;;;;;;-8.52;100.00;94627.00;2574780;23;20431;-82
2023/02/10 01:47:34;;;;;;;21.67;13.93;;;;;;;-8.47;100.00;94627.00;2557911;23;20424;-82
2023/02/10 01:48:35;;;;;;;20.13;12.77;;;;;;;-8.41;100.00;94629.34;2556898;23;20436;-82
2023/02/10 01:49:42;;;;;;;23.05;14.40;;;;;;;-8.42;100.00;94633.00;2569705;23;20353;-83
2023/02/10 01:51:03;;;;;;;21.05;14.02;;;;;;;-8.51;100.00;94628.59;2571353;23;20416;-81
2023/02/10 01:52:12;;;;;;;21.73;13.27;;;;;;;-8.47;100.00;94634.78;2561524;23;20427;-81
2023/02/10 01:53:14;;;;;;;20.23;12.93;;;;;;;-8.54;100.00;94629.09;2561269;23;20458;-81
2023/02/10 01:54:22;;;;;;;24.23;13.68;;;;;;;-8.60;100.00;94633.50;2570383;23;20516;-81
2023/02/10 01:55:29;;;;;;;26.00;14.18;;;;;;;-8.57;100.00;94632.97;2559039;23;20405;-83
2023/02/10 01:56:33;;;;;;;22.90;13.38;;;;;;;-8.62;100.00;94623.38;2548163;23;20456;-82
2023/02/10 01:57:40;;;;;;;22.98;13.40;;;;;;;-8.63;100.00;94632.19;2558486;23;20495;-83
2023/02/10 01:58:43;;;;;;;23.42;14.50;;;;;;;-8.59;100.00;94631.69;2560129;23;20948;-83
2023/02/10 01:59:44;;;;;;;22.90;14.15;;;;;;;-8.58;100.00;94628.06;2570734;23;20422;-81
2023/02/10 02:00:47;;;;;;;22.45;14.32;;;;;;;-8.57;100.00;94630.38;2570246;23;20422;-83
2023/02/10 02:01:49;;;;;;;21.48;14.13;;;;;;;-8.56;100.00;94625.97;2570679;23;20403;-81
2023/02/10 02:02:50;;;;;;;22.77;13.73;;;;;;;-8.54;100.00;94634.28;2571211;23;20917;-83
2023/02/10 02:03:53;;;;;;;21.20;13.80;;;;;;;-8.56;100.00;94637.09;2558269;23;20425;-81
2023/02/10 02:04:59;;;;;;;23.13;13.40;;;;;;;-8.59;100.00;94640.25;2584270;22;20399;-82
2023/02/10 02:06:01;;;;;;;22.27;14.27;;;;;;;-8.59;100.00;94635.06;2570970;23;20510;-82
2023/02/10 02:07:02;;;;;;;21.38;13.48;;;;;;;-8.74;100.00;94632.44;2558768;23;20413;-82
2023/02/10 02:08:15;;;;;;;23.27;13.77;;;;;;;-8.75;100.00;94631.66;2570413;23;20403;-81
2023/02/10 02:09:16;;;;;;;24.00;13.20;;;;;;;-8.66;100.00;94632.69;2559982;23;20407;-82
2023/02/10 02:10:18;;;;;;;22.30;13.95;;;;;;;-8.60;100.00;94630.91;2545432;23;20553;-82
2023/02/10 02:11:21;;;;;;;22.90;14.27;;;;;;;-8.58;100.00;94633.25;2558201;23;20439;-82
2023/02/10 02:12:40;;;;;;;22.70;13.63;;;;;;;-8.61;100.00;94634.50;2557935;23;20494;-84
2023/02/10 02:14:10;;;;;;;19.65;12.52;;;;;;;-8.70;100.00;94636.06;2565174;23;20952;-81
2023/02/10 02:15:42;;;;;;;19.85;12.63;;;;;;;-8.73;100.00;94634.78;2563790;23;20592;-83
2023/02/10 02:18:54;;;;;;;;;;;;;;;-8.88;100.00;94632.16;2147249;27;20125;-75
2023/02/10 02:20:43;;;;;;;20.50;11.80;;;;;;;-8.93;100.00;94634.75;2142151;27;19915;-74
2023/02/10 02:22:03;;;;;;;19.02;11.40;;;;;;;-8.90;100.00;94626.47;2140793;27;20015;-77
2023/02/10 02:23:06;;;;;;;22.23;13.00;;;;;;;-8.97;100.00;94620.75;2129929;27;20034;-76
2023/02/10 02:24:14;;;;;;;22.33;13.32;;;;;;;-8.96;100.00;94617.88;2124655;27;20053;-76
2023/02/10 02:25:21;;;;;;;21.35;13.13;;;;;;;-8.93;100.00;94617.38;2133965;27;20440;-76
2023/02/10 02:26:55;;;;;;;22.02;13.60;;;;;;;-8.84;100.00;94620.25;2142262;27;20976;-76
2023/02/10 02:28:15;;;;;;;21.52;13.43;;;;;;;-8.88;100.00;94629.56;2138238;27;20534;-76
2023/02/10 02:29:42;;;;;;;24.45;12.98;;;;;;;-8.83;100.00;94621.03;2132754;27;20441;-76
2023/02/10 02:31:07;;;;;;;24.05;13.80;;;;;;;-8.83;100.00;94621.03;2121273;27;20154;-76
2023/02/10 02:32:08;;;;;;;25.30;13.82;;;;;;;-8.91;100.00;94633.47;2116939;27;20462;-76
2023/02/10 02:33:13;;;;;;;20.30;13.13;;;;;;;-8.93;100.00;94629.56;2124997;27;20451;-76
2023/02/10 02:34:17;;;;;;;23.15;13.77;;;;;;;-8.95;100.00;94623.88;2143680;27;20047;-75
2023/02/10 02:35:26;;;;;;;20.65;13.10;;;;;;;-8.83;100.00;94632.16;2143507;27;20439;-76
2023/02/10 02:36:36;;;;;;;25.17;14.15;;;;;;;-8.80;100.00;94625.69;2130084;27;20425;-76
2023/02/10 02:37:47;;;;;;;28.85;13.80;;;;;;;-8.88;100.00;94637.34;2115771;27;20762;-75
2023/02/10 02:39:00;;;;;;;25.17;13.40;;;;;;;-8.96;100.00;94632.66;2111888;27;20094;-74
2023/02/10 02:40:04;;;;;;;27.85;15.32;;;;;;;-9.01;100.00;94636.00;2126532;27;20441;-74
2023/02/10 02:41:05;;;;;;;23.70;14.32;;;;;;;-9.08;100.00;94632.13;2141626;27;20463;-74
2023/02/10 02:42:23;;;;;;;23.65;13.77;;;;;;;-9.06;100.00;94638.59;2134306;27;20789;-74
2023/02/10 02:43:24;;;;;;;24.42;14.40;;;;;;;-9.02;100.00;94631.88;2141599;27;20037;-74
2023/02/10 02:44:26;;;;;;;28.08;15.10;;;;;;;-9.02;100.00;94631.88;2126896;27;20564;-74
2023/02/10 02:45:37;;;;;;;29.45;14.90;;;;;;;-9.12;100.00;94626.69;2132498;27;20512;-75
2023/02/10 02:46:56;;;;;;;23.75;13.70;;;;;;;-9.16;100.00;94625.63;2132670;27;20506;-76
2023/02/10 02:48:24;;;;;;;23.67;12.80;;;;;;;-8.91;100.00;94623.09;2136164;27;20491;-76
2023/02/10 02:49:40;;;;;;;26.08;13.27;;;;;;;-9.06;100.00;94630.03;2137933;27;20539;-76
2023/02/10 02:50:53;;;;;;;22.52;13.00;;;;;;;-9.09;100.00;94627.97;2132688;27;20438;-75
2023/02/10 02:52:05;;;;;;;24.60;14.52;;;;;;;-9.13;100.00;94631.06;2129991;27;20436;-75
2023/02/10 02:53:39;;;;;;;25.05;14.02;;;;;;;-9.04;100.00;94636.53;2142015;27;20846;-76
2023/02/10 02:54:49;;;;;;;24.30;12.77;;;;;;;-9.00;100.00;94634.19;2140093;27;20999;-76
2023/02/10 02:56:08;;;;;;;22.05;12.90;;;;;;;-9.07;100.00;94625.91;2141463;27;20782;-76
2023/02/10 02:57:41;;;;;;;24.80;13.57;;;;;;;-9.08;100.00;94632.91;2137352;27;20551;-75
2023/02/10 02:58:57;;;;;;;19.88;12.32;;;;;;;-9.00;100.00;94632.41;2140550;27;20466;-75
2023/02/10 03:00:15;;;;;;;20.98;12.75;;;;;;;-9.13;100.00;94633.66;2138367;27;20446;-75
2023/02/10 03:01:33;;;;;;;24.60;13.57;;;;;;;-9.23;100.00;94623.25;2132138;27;20460;-75
2023/02/10 03:02:37;;;;;;;21.60;12.93;;;;;;;-9.18;100.00;94633.63;2123630;27;20432;-75
2023/02/10 03:04:57;;;;;;;29.83;14.43;;;;;;;-9.26;100.00;94634.16;2138139;27;20441;-76
2023/02/10 03:06:03;;;;;;;23.02;13.15;;;;;;;-9.27;100.00;94629.97;2123529;27;20396;-75
2023/02/10 03:07:06;;;;;;;24.02;13.63;;;;;;;-9.26;100.00;94633.34;2113743;27;20441;-75
2023/02/10 03:08:08;;;;;;;22.30;13.48;;;;;;;-9.12;100.00;94639.63;2132701;27;20539;-75
2023/02/10 03:09:10;;;;;;;22.23;13.80;;;;;;;-9.12;100.00;94639.63;2141479;27;20475;-75
2023/02/10 03:10:11;;;;;;;25.80;14.00;;;;;;;-9.15;100.00;94637.53;2141861;27;20435;-75
2023/02/10 03:11:13;;;;;;;21.63;12.98;;;;;;;-9.19;100.00;94637.25;2141421;27;20906;-75
2023/02/10 03:12:14;;;;;;;21.25;14.30;;;;;;;-9.18;100.00;94645.78;2142113;27;20467;-75
2023/02/10 03:13:14;;;;;;;23.02;13.77;;;;;;;-9.27;100.00;94635.16;2139700;27;20077;-75
2023/02/10 03:14:15;;;;;;;23.25;14.13;;;;;;;-9.32;100.00;94642.13;2141755;27;20037;-75
2023/02/10 03:15:16;;;;;;;26.75;14.30;;;;;;;-9.34;100.00;94641.63;2134245;27;20127;-75
2023/02/10 03:16:17;;;;;;;23.42;13.10;;;;;;;-9.36;100.00;94635.91;2137943;27;20992;-75
2023/02/10 03:17:18;;;;;;;25.98;14.02;;;;;;;-9.26;100.00;94639.31;2138315;27;20470;-75
2023/02/10 03:18:19;;;;;;;24.88;14.68;;;;;;;-9.28;100.00;94640.59;2140796;27;20042;-75
2023/02/10 03:19:20;;;;;;;25.02;13.73;;;;;;;-9.30;100.00;94638.28;2141618;27;20433;-74
2023/02/10 03:20:22;;;;;;;23.00;14.70;;;;;;;-9.36;100.00;94641.09;2132254;27;20608;-75
2023/02/10 03:21:23;;;;;;;25.75;14.25;;;;;;;-9.35;100.00;94640.81;2131880;27;20806;-74
2023/02/10 03:22:24;;;;;;;25.17;13.88;;;;;;;-9.30;100.00;94637.50;2137343;27;20465;-75
2023/02/10 03:23:25;;;;;;;25.65;14.38;;;;;;;-9.37;100.00;94637.72;2123580;27;20452;-74
2023/02/10 03:24:26;;;;;;;23.60;14.00;;;;;;;-9.39;100.00;94640.56;2123605;27;20497;-74
2023/02/10 03:25:27;;;;;;;21.98;13.13;;;;;;;-9.33;100.00;94631.00;2137932;27;20894;-74
2023/02/10 03:26:29;;;;;;;27.65;15.05;;;;;;;-9.32;100.00;94639.53;2141233;27;20537;-74
2023/02/10 03:27:30;;;;;;;25.23;14.43;;;;;;;-9.33;100.00;94630.22;2133884;27;20527;-75
2023/02/10 03:28:31;;;;;;;24.23;14.40;;;;;;;-9.34;100.00;94634.63;2132236;27;20455;-75
2023/02/10 03:29:33;;;;;;;25.65;14.38;;;;;;;-9.32;100.00;94634.38;2122495;27;20452;-75
2023/02/10 03:30:34;;;;;;;23.02;13.52;;;;;;;-9.33;100.00;94631.00;2129118;27;20439;-74
2023/02/10 03:31:35;;;;;;;25.08;14.25;;;;;;;-9.27;100.00;94624.81;2135239;27;20427;-74
2023/02/10 03:32:36;;;;;;;25.90;14.60;;;;;;;-9.25;100.00;94630.53;2123639;27;20476;-74
2023/02/10 03:33:38;;;;;;;22.58;13.57;;;;;;;-9.19;100.00;94639.06;2119481;27;20472;-75
2023/02/10 03:34:40;;;;;;;19.42;13.10;;;;;;;-9.11;100.00;94637.81;2115925;27;20448;-74
2023/02/10 03:35:43;;;;;;;23.65;13.32;;;;;;;-9.15;100.00;94634.94;2123302;27;20467;-74
2023/02/10 03:36:46;;;;;;;26.08;14.80;;;;;;;-9.18;100.00;94638.81;2126144;27;20520;-74
2023/02/10 03:37:47;;;;;;;24.80;14.55;;;;;;;-9.16;100.00;94644.53;2127795;27;20452;-74
2023/02/10 03:38:48;;;;;;;22.45;14.48;;;;;;;-9.20;100.00;94640.88;2135605;27;20451;-74
2023/02/10 03:39:49;;;;;;;24.05;14.30;;;;;;;-9.29;100.00;94642.41;2135642;27;20447;-75
2023/02/10 03:40:50;;;;;;;23.40;14.48;;;;;;;-9.25;100.00;94643.47;2139479;27;20428;-75
2023/02/10 03:41:53;;;;;;;22.33;14.10;;;;;;;-9.22;100.00;94647.34;2126068;27;20440;-74
2023/02/10 03:42:56;;;;;;;22.58;14.13;;;;;;;-9.24;100.00;94647.59;2113889;27;21261;-74
2023/02/10 03:43:57;;;;;;;25.08;14.05;;;;;;;-9.21;100.00;94648.91;2117471;27;20432;-74
2023/02/10 03:44:58;;;;;;;23.50;14.48;;;;;;;-9.15;100.00;94650.47;2114465;27;20477;-74
2023/02/10 03:46:01;;;;;;;24.55;13.73;;;;;;;-9.21;100.00;94659.28;2126516;27;20192;-74
2023/02/10 03:47:03;;;;;;;22.63;13.23;;;;;;;-9.30;100.00;94661.56;2135667;27;20392;-74
2023/02/10 03:48:03;;;;;;;23.27;13.75;;;;;;;-9.17;100.00;94653.34;2135692;27;20440;-74
2023/02/10 03:49:05;;;;;;;21.35;13.32;;;;;;;-9.28;100.00;94651.72;2126484;27;20428;-73
2023/02/10 03:50:06;;;;;;;25.88;14.07;;;;;;;-9.17;100.00;94652.56;2117753;27;20056;-73
2023/02/10 03:51:07;;;;;;;23.48;13.70;;;;;;;-9.04;100.00;94653.88;2123840;27;20887;-74
2023/02/10 03:52:08;;;;;;;23.70;14.07;;;;;;;-9.13;100.00;94658.75;2129875;27;20569;-73
2023/02/10 03:53:10;;;;;;;23.27;14.30;;;;;;;-9.18;100.00;94656.94;2135328;27;21032;-74
2023/02/10 03:54:11;;;;;;;26.27;13.60;;;;;;;-9.22;100.00;94660.28;2131061;27;20039;-74
2023/02/10 03:55:17;;;;;;;26.25;14.27;;;;;;;-9.27;100.00;94662.84;2130948;27;20428;-73
2023/02/10 03:56:18;;;;;;;24.50;13.68;;;;;;;-9.29;100.00;94659.75;2118187;27;20026;-74
2023/02/10 03:57:19;;;;;;;22.80;13.60;;;;;;;-9.40;100.00;94661.50;2114066;27;20445;-74
2023/02/10 03:58:21;;;;;;;24.58;14.23;;;;;;;-9.36;100.00;94672.91;2134817;27;20062;-74
2023/02/10 03:59:22;;;;;;;25.92;14.38;;;;;;;-9.31;100.00;94666.97;2135709;27;20448;-74
2023/02/10 04:00:23;;;;;;;23.48;14.20;;;;;;;-9.33;100.00;94675.00;2131812;27;20455;-73
2023/02/10 04:01:24;;;;;;;23.30;14.05;;;;;;;-9.39;100.00;94668.25;2131484;27;20022;-74
2023/02/10 04:02:25;;;;;;;24.90;13.85;;;;;;;-9.40;100.00;94671.88;2135702;27;20065;-74
2023/02/10 04:03:26;;;;;;;24.52;14.10;;;;;;;-9.40;100.00;94684.81;2125976;27;20027;-74
2023/02/10 04:04:27;;;;;;;26.63;14.40;;;;;;;-9.41;100.00;94671.09;2126216;27;20447;-74
2023/02/10 04:05:29;;;;;;;22.85;14.13;;;;;;;-9.35;100.00;94687.41;2135773;27;20025;-74
2023/02/10 04:06:31;;;;;;;25.73;14.68;;;;;;;-9.39;100.00;94679.41;2136124;27;20087;-74
2023/02/10 04:07:32;;;;;;;25.88;15.15;;;;;;;-9.46;100.00;94684.00;2133020;27;20812;-74
2023/02/10 04:08:36;;;;;;;22.40;14.07;;;;;;;-9.40;100.00;94688.16;2138781;27;20427;-73
2023/02/10 04:09:37;;;;;;;25.85;14.55;;;;;;;-9.42;100.00;94682.47;2135820;27;20428;-74
2023/02/10 04:10:38;;;;;;;23.58;14.38;;;;;;;-9.42;100.00;94682.47;2138332;27;20527;-74
2023/02/10 04:11:39;;;;;;;25.45;14.57;;;;;;;-9.39;100.00;94679.41;2123908;27;20023;-75
2023/02/10 04:12:40;;;;;;;24.73;14.27;;;;;;;-9.39;100.00;94681.22;2129462;27;20512;-74
2023/02/10 04:13:41;;;;;;;25.30;15.40;;;;;;;-9.39;100.00;94681.22;2126752;27;20448;-75
2023/02/10 04:14:42;;;;;;;22.90;14.27;;;;;;;-9.44;100.00;94679.38;2131528;27;20054;-74
2023/02/10 04:15:43;;;;;;;25.30;14.77;;;;;;;-9.48;100.00;94688.66;2136023;27;20470;-74
2023/02/10 04:16:44;;;;;;;23.23;13.95;;;;;;;-9.47;100.00;94686.84;2123943;27;20028;-74
2023/02/10 04:17:45;;;;;;;26.23;15.00;;;;;;;-9.42;100.00;94674.72;2130318;27;20425;-74
2023/02/10 04:18:46;;;;;;;22.15;13.90;;;;;;;-9.42;100.00;94681.69;2127330;27;20085;-75
2023/02/10 04:19:47;;;;;;;25.95;14.48;;;;;;;-9.43;100.00;94680.94;2121895;27;20445;-73
2023/02/10 04:20:50;;;;;;;23.40;14.27;;;;;;;-9.49;100.00;94678.56;2127648;27;20035;-73
2023/02/10 04:21:51;;;;;;;28.63;14.77;;;;;;;-9.49;100.00;94673.38;2130576;27;20022;-73
2023/02/10 04:22:52;;;;;;;24.95;14.95;;;;;;;-9.43;100.00;94669.81;2113101;27;20551;-73
2023/02/10 04:23:53;;;;;;;27.00;15.38;;;;;;;-9.42;100.00;94671.34;2126792;27;20031;-74
2023/02/10 04:24:54;;;;;;;24.48;15.02;;;;;;;-9.39;100.00;94669.03;2114801;27;20433;-73
2023/02/10 04:25:55;;;;;;;27.58;15.35;;;;;;;-9.34;100.00;94670.09;2127330;27;20519;-74
2023/02/10 04:26:56;;;;;;;27.67;16.52;;;;;;;-9.42;100.00;94672.13;2130914;27;20377;-74
2023/02/10 04:27:57;;;;;;;26.42;15.18;;;;;;;-9.34;100.00;94672.69;2123971;27;20443;-74
2023/02/10 04:28:58;;;;;;;26.90;15.48;;;;;;;-9.35;100.00;94674.47;2131508;27;20133;-74
2023/02/10 04:29:59;;;;;;;26.52;15.05;;;;;;;-9.31;100.00;94672.94;2117350;27;20171;-74
2023/02/10 04:31:01;;;;;;;26.13;15.68;;;;;;;-9.33;100.00;94680.19;2113567;28;20456;-74
2023/02/10 04:32:02;;;;;;;26.85;15.30;;;;;;;-9.33;100.00;94677.59;2123323;27;20523;-74
2023/02/10 04:33:03;;;;;;;26.27;15.98;;;;;;;-9.39;100.00;94673.44;2126898;27;20432;-74
2023/02/10 04:34:04;;;;;;;30.23;15.88;;;;;;;-9.40;100.00;94671.88;2126985;27;21086;-74
2023/02/10 04:35:05;;;;;;;25.70;15.57;;;;;;;-9.34;100.00;94677.88;2126750;27;20077;-75
2023/02/10 04:36:06;;;;;;;24.67;15.73;;;;;;;-9.36;100.00;94680.69;2126082;27;20443;-74
2023/02/10 04:37:07;;;;;;;28.45;16.98;;;;;;;-9.30;100.00;94677.09;2126285;27;20446;-75
2023/02/10 04:38:08;;;;;;;26.50;16.05;;;;;;;-9.34;100.00;94680.44;2126616;27;20439;-74
2023/02/10 04:39:09;;;;;;;26.98;15.32;;;;;;;-9.41;100.00;94675.50;2126644;27;20062;-74
2023/02/10 04:40:10;;;;;;;28.17;16.40;;;;;;;-9.39;100.00;94676.81;2126594;27;20026;-75
2023/02/10 04:41:11;;;;;;;27.98;16.10;;;;;;;-9.27;100.00;94670.63;2125282;27;20476;-75
2023/02/10 04:42:13;;;;;;;27.17;14.88;;;;;;;-9.29;100.00;94673.47;2125463;27;20444;-74
2023/02/10 04:43:14;;;;;;;24.90;15.90;;;;;;;-9.25;100.00;94668.56;2124827;27;20432;-74
2023/02/10 04:44:16;;;;;;;26.02;15.82;;;;;;;-9.25;100.00;94671.16;2117983;27;20441;-74
2023/02/10 04:45:17;;;;;;;28.83;15.68;;;;;;;-9.24;100.00;94676.09;2127004;27;20463;-75
2023/02/10 04:46:18;;;;;;;28.23;16.23;;;;;;;-9.24;100.00;94673.50;2127024;27;20444;-75
2023/02/10 04:47:19;;;;;;;27.55;16.30;;;;;;;-9.27;100.00;94668.03;2126004;27;20766;-75
2023/02/10 04:48:21;;;;;;;27.08;16.25;;;;;;;-9.19;100.00;94670.91;2126173;27;20444;-75
2023/02/10 04:49:22;;;;;;;26.73;15.38;;;;;;;-9.15;100.00;94669.38;2126900;27;20110;-74
2023/02/10 04:50:23;;;;;;;26.65;15.00;;;;;;;-9.19;100.00;94672.72;2122455;27;20520;-75
2023/02/10 04:51:24;;;;;;;23.75;14.52;;;;;;;-9.20;100.00;94669.38;2125819;27;20481;-75
2023/02/10 04:52:25;;;;;;;27.45;15.60;;;;;;;-9.27;100.00;94666.22;2126004;27;20035;-75
2023/02/10 04:53:26;;;;;;;26.17;15.48;;;;;;;-9.26;100.00;94675.56;2126566;27;20067;-75
2023/02/10 04:54:27;;;;;;;26.63;14.57;;;;;;;-9.22;100.00;94670.63;2125785;27;20027;-75